createdAt,value
2018-04-11T03:30:47.652Z,9.00
2018-04-11T03:33:15.279Z,9.00
2018-04-11T03:35:42.902Z,9.00
2018-04-11T03:38:11.337Z,9.00
2018-04-11T03:40:38.961Z,9.10
2018-04-11T03:43:06.590Z,9.10
2018-04-11T03:45:34.242Z,9.20
2018-04-11T03:48:01.866Z,9.00
2018-04-11T03:50:29.495Z,8.50
2018-04-11T03:52:57.931Z,7.60
2018-04-11T03:55:25.558Z,7.60
2018-04-11T03:57:53.187Z,7.30
2018-04-11T04:00:21.620Z,7.00
2018-04-11T04:02:49.251Z,6.90
2018-04-11T04:05:16.882Z,6.90
2018-04-11T04:07:45.362Z,6.90
2018-04-11T04:10:12.976Z,6.90
2018-04-11T04:12:40.602Z,7.20
2018-04-11T04:15:20.148Z,7.60
2018-04-11T04:17:59.687Z,7.90
2018-04-11T04:20:36.268Z,8.40
2018-04-11T04:23:03.923Z,8.60
2018-04-11T04:25:31.574Z,8.50
2018-04-11T04:27:59.206Z,8.50
2018-04-11T04:30:27.607Z,8.30
2018-04-11T04:32:55.271Z,8.30
2018-04-11T04:35:22.898Z,8.20
2018-04-11T04:37:50.530Z,8.00
2018-04-11T04:40:18.212Z,7.80
2018-04-11T04:42:45.851Z,7.50
2018-04-11T04:45:13.491Z,7.50
2018-04-11T04:47:41.159Z,7.60
2018-04-11T04:50:08.792Z,8.00
2018-04-11T04:52:36.427Z,8.30
2018-04-11T04:55:04.842Z,8.90
2018-04-11T04:57:32.494Z,8.90
2018-04-11T05:00:00.118Z,9.10
2018-04-11T05:02:27.768Z,9.20
2018-04-11T05:04:55.400Z,9.30
2018-04-11T05:07:23.051Z,9.30
2018-04-11T05:09:50.683Z,9.40
2018-04-11T05:12:18.334Z,9.40
2018-04-11T05:14:45.967Z,9.40
2018-04-11T05:17:13.651Z,9.20
2018-04-11T05:19:42.041Z,8.80
2018-04-11T05:22:09.674Z,8.80
2018-04-11T05:24:37.354Z,8.70
2018-04-11T05:27:05.752Z,9.30
2018-04-11T05:29:33.382Z,9.30
2018-04-11T05:32:01.827Z,9.60
2018-04-11T05:34:29.467Z,9.60
2018-04-11T05:36:57.095Z,9.60
2018-04-11T05:39:24.771Z,9.60
2018-04-11T05:41:52.405Z,9.40
2018-04-11T05:44:20.814Z,8.90
2018-04-11T05:46:48.497Z,8.90
2018-04-11T05:49:16.140Z,8.70
2018-04-11T05:51:43.766Z,9.00
2018-04-11T05:54:12.202Z,9.30
2018-04-11T05:56:39.833Z,9.30
2018-04-11T05:59:07.467Z,9.50
2018-04-11T06:01:35.127Z,9.60
2018-04-11T06:04:03.555Z,9.90
2018-04-11T06:06:31.191Z,9.90
2018-04-11T06:08:58.867Z,10.00
2018-04-11T06:11:26.508Z,10.20
2018-04-11T06:13:54.143Z,10.30
2018-04-11T06:16:22.601Z,10.50
2018-04-11T06:18:50.240Z,10.40
2018-04-11T06:21:18.650Z,10.70
2018-04-11T06:23:47.106Z,10.80
2018-04-11T06:26:14.747Z,10.90
2018-04-11T06:28:42.407Z,11.10
2018-04-11T06:31:10.072Z,11.10
2018-04-11T06:33:37.712Z,11.20
2018-04-11T06:36:05.349Z,11.10
2018-04-11T06:38:33.019Z,11.20
2018-04-11T06:41:00.653Z,11.10
2018-04-11T06:43:29.051Z,11.30
2018-04-11T06:45:56.711Z,11.30
2018-04-11T06:48:24.378Z,11.30
2018-04-11T06:50:52.022Z,11.40
2018-04-11T06:53:20.450Z,11.90
2018-04-11T06:55:48.091Z,11.90
2018-04-11T06:58:15.762Z,12.10
2018-04-11T07:00:43.429Z,12.30
2018-04-11T07:03:11.146Z,12.20
2018-04-11T07:05:39.558Z,12.50
2018-04-11T07:08:07.205Z,12.50
2018-04-11T07:10:34.895Z,12.40
2018-04-11T07:13:02.540Z,12.60
2018-04-11T07:15:30.187Z,12.50
2018-04-11T07:17:57.868Z,12.40
2018-04-11T07:20:25.509Z,12.40
2018-04-11T07:22:53.156Z,12.40
2018-04-11T07:25:20.820Z,12.60
2018-04-11T07:27:48.455Z,12.70
2018-04-11T07:30:16.907Z,13.00
2018-04-11T07:32:44.546Z,13.00
2018-04-11T07:35:12.203Z,13.10
2018-04-11T07:37:39.886Z,13.10
2018-04-11T07:40:07.554Z,13.20
2018-04-11T07:42:35.986Z,13.00
2018-04-11T07:45:03.658Z,13.00
2018-04-11T07:47:31.298Z,12.90
2018-04-11T07:49:58.935Z,12.90
2018-04-11T07:52:27.376Z,13.10
2018-04-11T07:54:55.823Z,13.00
2018-04-11T07:57:23.466Z,13.00
2018-04-11T07:59:51.146Z,13.10
2018-04-11T08:02:18.826Z,13.40
2018-04-11T08:04:46.473Z,13.60
2018-04-11T08:07:14.111Z,13.80
2018-04-11T08:09:41.820Z,13.80
2018-04-11T08:12:09.472Z,13.70
2018-04-11T08:14:37.142Z,13.90
2018-04-11T08:17:06.331Z,14.40
2018-04-11T08:19:34.031Z,14.40
2018-04-11T08:22:02.451Z,14.40
2018-04-11T08:24:30.090Z,14.30
2018-04-11T08:26:57.755Z,14.20
2018-04-11T08:29:25.431Z,14.10
2018-04-11T08:31:53.074Z,13.90
2018-04-11T08:34:20.744Z,13.70
2018-04-11T08:36:48.495Z,13.60
2018-04-11T08:39:16.139Z,13.50
2018-04-11T08:41:44.571Z,13.50
2018-04-11T08:44:12.215Z,13.50
2018-04-11T08:46:39.907Z,13.60
2018-04-11T08:49:07.556Z,13.60
2018-04-11T08:51:35.199Z,13.40
2018-04-11T08:54:02.887Z,13.40
2018-04-11T08:56:30.544Z,13.50
2018-04-11T08:58:58.201Z,13.40
2018-04-11T09:01:25.875Z,13.50
2018-04-11T09:03:53.536Z,13.70
2018-04-11T09:06:21.189Z,13.90
2018-04-11T09:08:48.879Z,14.00
2018-04-11T09:11:17.296Z,14.20
2018-04-11T09:13:44.951Z,14.20
2018-04-11T09:16:12.640Z,14.20
2018-04-11T09:18:40.299Z,13.90
2018-04-11T09:21:07.951Z,13.70
2018-04-11T09:23:35.624Z,13.50
2018-04-11T09:26:03.311Z,13.30
2018-04-11T09:28:30.950Z,13.20
2018-04-11T09:30:58.628Z,13.20
2018-04-11T09:33:26.271Z,13.30
2018-04-11T09:35:53.924Z,13.30
2018-04-11T09:38:21.607Z,13.40
2018-04-11T09:40:49.280Z,13.60
2018-04-11T09:43:17.694Z,14.00
2018-04-11T09:45:45.347Z,14.00
2018-04-11T09:48:13.039Z,14.10
2018-04-11T09:50:40.683Z,14.20
2018-04-11T09:53:08.323Z,14.10
2018-04-11T09:55:36.039Z,14.20
2018-04-11T09:58:04.442Z,14.20
2018-04-11T10:00:32.858Z,14.50
2018-04-11T10:03:06.282Z,14.70
2018-04-11T10:05:34.858Z,14.60
2018-04-11T10:08:02.511Z,14.80
2018-04-11T10:10:30.207Z,14.80
2018-04-11T10:12:57.852Z,14.50
2018-04-11T10:15:26.277Z,14.70
2018-04-11T10:17:53.947Z,14.70
2018-04-11T10:20:21.587Z,14.80
2018-04-11T10:22:50.022Z,14.80
2018-04-11T10:25:17.668Z,14.80
2018-04-11T10:27:45.335Z,14.90
2018-04-11T10:30:13.020Z,14.90
2018-04-11T10:32:40.655Z,14.70
2018-04-11T10:35:08.296Z,14.60
2018-04-11T10:37:35.986Z,14.50
2018-04-11T10:40:03.647Z,14.60
2018-04-11T10:42:31.331Z,14.40
2018-04-11T10:44:59.030Z,14.70
2018-04-11T10:47:26.676Z,14.60
2018-04-11T10:49:55.132Z,14.80
2018-04-11T10:52:22.787Z,14.80
2018-04-11T10:54:50.439Z,15.00
2018-04-11T10:57:18.102Z,15.20
2018-04-11T10:59:45.745Z,14.90
2018-04-11T11:02:13.411Z,14.60
2018-04-11T11:04:41.047Z,14.50
2018-04-11T11:07:08.709Z,14.60
2018-04-11T11:09:36.366Z,14.70
2018-04-11T11:12:04.053Z,14.70
2018-04-11T11:14:31.691Z,14.70
2018-04-11T11:16:59.332Z,14.80
2018-04-11T11:19:27.014Z,14.90
2018-04-11T11:21:54.658Z,14.90
2018-04-11T11:24:22.299Z,14.80
2018-04-11T11:26:50.747Z,14.90
2018-04-11T11:29:18.384Z,14.90
2018-04-11T11:31:46.025Z,14.70
2018-04-11T11:34:13.698Z,14.90
2018-04-11T11:36:41.422Z,15.20
2018-04-11T11:39:09.832Z,15.10
2018-04-11T11:41:37.467Z,15.10
2018-04-11T11:44:05.919Z,15.20
2018-04-11T11:46:33.563Z,15.20
2018-04-11T11:49:01.973Z,15.80
2018-04-11T11:51:30.924Z,15.90
2018-04-11T11:53:58.624Z,15.90
2018-04-11T11:56:27.234Z,15.80
2018-04-11T11:58:54.916Z,15.70
2018-04-11T12:01:22.556Z,15.80
2018-04-11T12:03:50.199Z,15.70
2018-04-11T12:06:18.629Z,15.50
2018-04-11T12:08:46.496Z,15.50
2018-04-11T12:11:14.179Z,15.30
2018-04-11T12:13:41.823Z,15.40
2018-04-11T12:16:09.463Z,15.40
2018-04-11T12:18:37.140Z,15.20
2018-04-11T12:21:04.791Z,15.30
2018-04-11T12:23:32.476Z,15.80
2018-04-11T12:26:00.176Z,16.50
2018-04-11T12:28:27.819Z,17.00
2018-04-11T12:30:56.233Z,17.30
2018-04-11T12:33:23.920Z,17.30
2018-04-11T12:35:51.559Z,17.20
2018-04-11T12:38:19.203Z,17.00
2018-04-11T12:40:46.878Z,16.80
2018-04-11T12:43:14.547Z,16.70
2018-04-11T12:45:42.187Z,16.50
2018-04-11T12:48:10.606Z,16.50
2018-04-11T12:50:38.271Z,16.50
2018-04-11T12:53:05.911Z,16.50
2018-04-11T12:55:33.554Z,16.50
2018-04-11T12:58:01.250Z,16.50
2018-04-11T13:00:30.399Z,16.50
2018-04-11T13:02:58.042Z,16.50
2018-04-11T13:05:26.499Z,16.20
2018-04-11T13:07:54.153Z,16.20
2018-04-11T13:10:21.791Z,16.10
2018-04-11T13:12:49.467Z,16.10
2018-04-11T13:15:17.112Z,16.10
2018-04-11T13:17:44.752Z,16.10
2018-04-11T13:20:12.419Z,16.20
2018-04-11T13:22:40.838Z,16.60
2018-04-11T13:25:08.500Z,16.60
2018-04-11T13:27:36.138Z,16.70
2018-04-11T13:30:03.774Z,16.80
2018-04-11T13:32:31.486Z,16.80
2018-04-11T13:34:59.123Z,16.80
2018-04-11T13:37:26.787Z,16.90
2018-04-11T13:39:54.426Z,16.90
2018-04-11T13:42:22.067Z,16.90
2018-04-11T13:44:49.743Z,16.90
2018-04-11T13:47:17.383Z,17.10
2018-04-11T13:49:45.035Z,17.10
2018-04-11T13:52:12.735Z,17.10
2018-04-11T13:54:40.379Z,17.10
2018-04-11T13:57:08.023Z,17.20
2018-04-11T13:59:35.692Z,17.40
2018-04-11T14:02:03.338Z,17.40
2018-04-11T14:04:31.480Z,17.40
2018-04-11T14:07:00.074Z,17.30
2018-04-11T14:09:27.750Z,17.30
2018-04-11T14:11:55.442Z,17.30
2018-04-11T14:14:23.094Z,17.40
2018-04-11T14:16:50.766Z,17.40
2018-04-11T14:19:18.451Z,17.30
2018-04-11T14:21:46.098Z,17.20
2018-04-11T14:24:13.747Z,17.20
2018-04-11T14:26:41.744Z,17.20
2018-04-11T14:29:09.553Z,17.10
2018-04-11T14:31:37.191Z,17.00
2018-04-11T14:34:05.629Z,16.90
2018-04-11T14:36:33.279Z,16.90
2018-04-11T14:39:00.920Z,16.80
2018-04-11T14:41:28.716Z,16.80
2018-04-11T14:43:56.362Z,16.60
2018-04-11T14:46:23.998Z,16.60
2018-04-11T14:48:51.675Z,16.50
2018-04-11T14:51:19.315Z,16.50
2018-04-11T14:53:47.020Z,16.60
2018-04-11T14:56:14.680Z,16.60
2018-04-11T14:58:42.321Z,16.80
2018-04-11T15:01:10.004Z,16.90
2018-04-11T15:03:38.487Z,16.80
2018-04-11T15:06:06.141Z,16.70
2018-04-11T15:08:33.815Z,16.70
2018-04-11T15:11:01.452Z,16.50
2018-04-11T15:13:29.167Z,16.70
2018-04-11T15:15:57.585Z,17.20
2018-04-11T15:18:25.226Z,17.20
2018-04-11T15:20:52.910Z,17.40
2018-04-11T15:23:20.552Z,17.90
2018-04-11T15:25:48.193Z,18.30
2018-04-11T15:28:16.643Z,19.20
2018-04-11T15:30:44.286Z,19.20
2018-04-11T15:33:11.936Z,19.10
2018-04-11T15:35:39.623Z,18.80
2018-04-11T15:38:07.269Z,18.50
2018-04-11T15:40:34.908Z,18.20
2018-04-11T15:43:02.584Z,18.40
2018-04-11T15:45:30.227Z,18.60
2018-04-11T15:47:57.873Z,18.80
2018-04-11T15:50:25.549Z,19.00
2018-04-11T15:52:53.183Z,19.40
2018-04-11T15:55:20.818Z,19.60
2018-04-11T15:57:48.479Z,19.70
2018-04-11T16:00:16.119Z,19.70
2018-04-11T16:02:43.754Z,19.60
2018-04-11T16:05:11.444Z,19.30
2018-04-11T16:07:39.091Z,19.30
2018-04-11T16:10:07.351Z,19.50
2018-04-11T16:12:35.039Z,19.50
2018-04-11T16:15:02.687Z,19.40
2018-04-11T16:17:31.103Z,19.20
2018-04-11T16:19:59.547Z,19.10
2018-04-11T16:22:27.189Z,19.10
2018-04-11T16:24:54.832Z,19.00
2018-04-11T16:27:22.514Z,18.70
2018-04-11T16:29:50.147Z,18.20
2018-04-11T16:32:17.792Z,17.60
2018-04-11T16:34:46.254Z,17.30
2018-04-11T16:37:13.895Z,17.30
2018-04-11T16:39:41.534Z,17.00
2018-04-11T16:42:09.215Z,16.70
2018-04-11T16:44:36.855Z,16.30
2018-04-11T16:47:04.495Z,16.10
2018-04-11T16:49:32.154Z,16.30
2018-04-11T16:51:59.794Z,16.70
2018-04-11T16:54:28.231Z,17.30
2018-04-11T16:56:55.911Z,17.20
2018-04-11T16:59:23.559Z,17.30
2018-04-11T17:01:51.215Z,17.40
2018-04-11T17:04:18.879Z,17.10
2018-04-11T17:06:46.518Z,17.00
2018-04-11T17:09:14.160Z,17.10
2018-04-11T17:11:41.847Z,17.30
2018-04-11T17:14:10.259Z,17.50
2018-04-11T17:16:37.908Z,17.40
2018-04-11T17:19:05.583Z,17.30
2018-04-11T17:21:45.928Z,16.50
2018-04-11T17:24:25.617Z,16.40
2018-04-11T17:27:05.295Z,16.30
2018-04-11T17:29:44.791Z,15.70
2018-04-11T17:32:12.473Z,15.30
2018-04-11T17:34:40.113Z,14.80
2018-04-11T17:37:07.756Z,14.60
2018-04-11T17:39:36.186Z,13.90
2018-04-11T17:42:03.830Z,13.90
2018-04-11T17:44:31.480Z,13.60
2018-04-11T17:46:59.179Z,13.50
2018-04-11T17:49:26.822Z,13.50
2018-04-11T17:51:54.462Z,13.40
2018-04-11T17:54:22.151Z,13.50
2018-04-11T17:56:49.796Z,13.40
2018-04-11T17:59:17.439Z,13.40
2018-04-11T18:01:45.234Z,13.20
2018-04-11T18:04:12.886Z,13.10
2018-04-11T18:06:40.530Z,12.90
2018-04-11T18:09:08.231Z,12.80
2018-04-11T18:11:35.882Z,12.70
2018-04-11T18:14:03.527Z,12.70
2018-04-11T18:16:31.223Z,12.50
2018-04-11T18:18:59.640Z,12.50
2018-04-11T18:21:27.286Z,12.40
2018-04-11T18:23:55.765Z,12.40
2018-04-11T18:26:23.413Z,12.30
2018-04-11T18:28:51.851Z,12.20
2018-04-11T18:31:19.551Z,12.30
2018-04-11T18:33:47.963Z,12.10
2018-04-11T18:36:15.623Z,12.10
2018-04-11T18:38:43.286Z,12.10
2018-04-11T18:41:10.940Z,11.90
2018-04-11T18:43:38.611Z,11.90
2018-04-11T18:46:06.259Z,11.80
2018-04-11T18:48:33.913Z,11.80
2018-04-11T18:51:01.599Z,11.70
2018-04-11T18:53:29.298Z,11.70
2018-04-11T18:55:56.940Z,11.60
2018-04-11T18:58:24.733Z,11.70
2018-04-11T19:00:52.389Z,11.60
2018-04-11T19:03:20.058Z,11.60
2018-04-11T19:05:47.725Z,11.70
2018-04-11T19:08:16.157Z,11.60
2018-04-11T19:10:43.889Z,11.60
2018-04-11T19:13:11.618Z,11.60
2018-04-11T19:15:39.224Z,11.50
2018-04-11T19:18:06.918Z,11.50
2018-04-11T19:20:34.560Z,11.60
2018-04-11T19:23:02.241Z,11.40
2018-04-11T19:25:29.940Z,11.40
2018-04-11T19:27:58.364Z,11.50
2018-04-11T19:30:26.036Z,11.50
2018-04-11T19:32:53.708Z,11.40
2018-04-11T19:35:21.354Z,11.30
2018-04-11T19:37:49.027Z,11.20
2018-04-11T19:40:16.682Z,11.20
2018-04-11T19:42:45.123Z,11.10
2018-04-11T19:45:12.817Z,11.10
2018-04-11T19:47:40.468Z,11.10
2018-04-11T19:50:08.150Z,11.10
2018-04-11T19:52:35.828Z,11.10
2018-04-11T19:55:03.471Z,11.00
2018-04-11T19:57:31.127Z,11.10
2018-04-11T19:59:58.811Z,11.10
2018-04-11T20:02:26.447Z,11.10
2018-04-11T20:04:54.092Z,11.10
2018-04-11T20:07:21.761Z,11.00
2018-04-11T20:09:49.407Z,11.10
2018-04-11T20:12:17.105Z,11.00
2018-04-11T20:14:44.763Z,11.10
2018-04-11T20:17:12.411Z,11.20
2018-04-11T20:19:40.095Z,11.20
2018-04-11T20:22:07.741Z,11.00
2018-04-11T20:24:35.383Z,10.80
2018-04-11T20:27:03.100Z,10.70
2018-04-11T20:29:31.506Z,10.60
2018-04-11T20:31:59.175Z,10.50
2018-04-11T20:34:26.862Z,10.60
2018-04-11T20:36:54.507Z,10.60
2018-04-11T20:39:22.138Z,10.70
2018-04-11T20:41:49.825Z,10.70
2018-04-11T20:44:17.488Z,10.70
2018-04-11T20:46:45.135Z,10.60
2018-04-11T20:49:12.814Z,10.60
2018-04-11T20:51:40.459Z,10.50
2018-04-11T20:54:08.091Z,10.50
2018-04-11T20:56:35.755Z,10.50
2018-04-11T20:59:03.387Z,10.60
2018-04-11T21:01:31.851Z,10.60
2018-04-11T21:03:59.491Z,10.60
2018-04-11T21:06:27.891Z,10.60
2018-04-11T21:08:55.574Z,10.60
2018-04-11T21:11:23.983Z,10.70
2018-04-11T21:13:51.623Z,10.70
2018-04-11T21:16:19.303Z,10.80
2018-04-11T21:18:46.943Z,10.80
2018-04-11T21:21:14.578Z,10.80
2018-04-11T21:23:42.304Z,10.80
2018-04-11T21:26:09.971Z,10.80
2018-04-11T21:28:37.617Z,10.80
2018-04-11T21:31:05.308Z,10.90
2018-04-11T21:33:32.943Z,10.90
2018-04-11T21:36:00.579Z,10.80
2018-04-11T21:38:28.258Z,10.70
2018-04-11T21:40:55.905Z,10.70
2018-04-11T21:43:23.543Z,10.80
2018-04-11T21:45:51.982Z,10.70
2018-04-11T21:48:19.623Z,10.70
2018-04-11T21:50:47.263Z,10.80
2018-04-11T21:53:14.935Z,10.70
2018-04-11T21:55:42.576Z,10.60
2018-04-11T21:58:10.220Z,10.60
2018-04-11T22:00:38.664Z,10.60
2018-04-11T22:03:06.303Z,10.60
2018-04-11T22:05:33.954Z,10.70
2018-04-11T22:08:01.635Z,10.60
2018-04-11T22:10:29.279Z,10.60
2018-04-11T22:12:56.910Z,10.60
2018-04-11T22:15:24.597Z,10.50
2018-04-11T22:17:52.237Z,10.50
2018-04-11T22:20:19.914Z,10.50
2018-04-11T22:22:47.556Z,10.60
2018-04-11T22:25:15.198Z,10.50
2018-04-11T22:27:43.626Z,10.60
